This demonstration page uses our WeatherBlox Daily Observations layout. Learn more.

Left ArrowRight Arrow

36.17497, -115.13722

Hourly Observations for May 16, 2016

Temp ( °F °C ) Dew Point ( °F °C ) Humidity (%) Winds ( mph kmh ) Pressure ( in mb ) Visibility ( mi km ) Precip ( " mm )
12:53 am 00:53 Clear 75 23.9 24 -4.4 15 15 NNW 10 17 29.7 1006 10 16.0934 0 0
1:53 am 01:53 Clear 75 23.9 24 -4.4 15 15 NNW 13 20 29.7 1006 10 16.0934 0 0
2:53 am 02:53 Clear 75 23.9 25 -3.9 15 15 NNW 14 22 29.71 1006 10 16.0934 0 0
3:53 am 03:53 Clear 72 22.2 28 -2.2 19 19 N 9 15 29.73 1007 10 16.0934 0 0
4:53 am 04:53 Clear 73 22.8 29 -1.7 19 19 N 8 13 29.75 1007 10 16.0934 0 0
5:53 am 05:53 Mostly Sunny 72 22.2 29 -1.7 20 20 NNW 14 22 29.77 1008 10 16.0934 0 0
6:53 am 06:53 Partly Cloudy 73 22.8 30 -1.1 20 20 NNW 15 24 29.78 1009 10 16.0934 0 0
7:53 am 07:53 Mostly Sunny 75 23.9 30 -1.1 19 19 NNW 15 24 29.8 1009 10 16.0934 0 0
8:53 am 08:53 Mostly Sunny 77 25 30 -1.1 18 18 NNW 17 28 29.82 1010 10 16.0934 0 0
9:53 am 09:53 Sunny 78 25.6 29 -1.7 16 16 N 12 19 29.82 1010 10 16.0934 0 0
10:53 am 10:53 Sunny 80 26.7 28 -2.2 15 15 NNW 16 26 29.81 1009 10 16.0934 0 0
11:53 am 11:53 Sunny 83 28.3 27 -2.8 13 13 N 15 24 29.78 1009 10 16.0934 0 0
12:53 pm 12:53 Mostly Sunny 84 28.9 28 -2.2 13 13 N 15 24 29.77 1008 10 16.0934 0 0
1:53 pm 13:53 Sunny 82 27.8 28 -2.2 14 14 VRB 5 7 29.75 1007 10 16.0934 0 0
2:53 pm 14:53 Sunny 83 28.3 27 -2.8 13 13 E 3 6 29.73 1007 10 16.0934 0 0
3:53 pm 15:53 Sunny 83 28.3 26 -3.3 12 12 W 6 9 29.72 1006 10 16.0934 0 0
4:53 pm 16:53 Sunny 85 29.4 24 -4.4 11 11 N 14 22 29.7 1006 10 16.0934 0 0
5:53 pm 17:53 Sunny 84 28.9 25 -3.9 11 11 N 13 20 29.7 1006 10 16.0934 0 0
6:53 pm 18:53 Sunny 83 28.3 26 -3.3 12 12 N 18 30 29.7 1006 10 16.0934 0 0
7:53 pm 19:53 Clear 82 27.8 27 -2.8 13 13 N 8 13 29.72 1006 10 16.0934 0 0
8:53 pm 20:53 Clear 80 26.7 27 -2.8 14 14 NW 9 15 29.74 1007 10 16.0934 0 0
9:53 pm 21:53 Clear 78 25.6 29 -1.7 16 16 NW 8 13 29.75 1008 10 16.0934 0 0
10:53 pm 22:53 Clear 77 25 28 -2.2 16 16 NW 13 20 29.75 1008 10 16.0934 0 0
11:53 pm 23:53 Clear 76 24.4 31 -0.6 19 19 NNE 13 20 29.78 1009 10 16.0934 0 0

Powered by AerisWeather